Terminal Aerodrome Forecast
Issued by NWS

Home | Current Version | Previous Version | Text Only | Print | Product List | Glossary On
Versions: 1 2 3 4 5 6 7 8 9 10 11 12 13 14 15 16 17 18 19 20 21 22 23 24 25 26 27 28 29 30 31 32 33 34 35 36 37 38 39 40 41 42 43 44
000
FTUS43 KDTX 010520
TAFYIP
TAF
KYIP 010520Z 0106/0206 06009KT 2SM -RA BR OVC005
     FM010800 02008KT 3SM -DZ BR OVC005
     FM011600 35008KT P6SM OVC015
     FM011900 36008KT P6SM BKN025
     FM020500 03006KT 3SM RA BR OVC007=

USA.gov is the U.S. government's official web portal to all federal, state and local government web resources and services.